Time;durP1;ratioP1;P1;durP2;ratioP2;P2;SDS_P1;SDS_P2;PMS_P1;PMS_P2;Temp;Humidity;BMP_temperature;BMP_pressure;BME280_temperature;BME280_humidity;BME280_pressure;Samples;Min_cycle;Max_cycle;Signal;HPM_P1;HPM_P2
2022/05/01 00:01:44;;;;;;;9.32;5.75;;;;;;;;;;5053063;28;20479;-37
2022/05/01 00:04:10;;;;;;;9.75;5.60;;;;;;;;;;5052882;28;20488;-38
2022/05/01 00:06:36;;;;;;;8.40;5.60;;;;;;;;;;5053006;28;20037;-37
2022/05/01 00:09:03;;;;;;;12.20;7.72;;;;;;;;;;5052686;28;20032;-37
2022/05/01 00:11:30;;;;;;;11.48;6.70;;;;;;;;;;5052791;28;20376;-37
2022/05/01 00:13:57;;;;;;;9.95;6.50;;;;;;;;;;5052873;28;20024;-36
2022/05/01 00:16:23;;;;;;;9.35;6.60;;;;;;;;;;5052566;28;20380;-37
2022/05/01 00:18:49;;;;;;;12.77;8.13;;;;;;;;;;5052431;28;20024;-36
2022/05/01 00:21:18;;;;;;;9.73;6.47;;;;;;;;;;5052717;28;20032;-38
2022/05/01 00:23:44;;;;;;;8.35;6.80;;;;;;;;;;5052126;28;20021;-37
2022/05/01 00:26:11;;;;;;;10.63;6.60;;;;;;;;;;5052622;28;20025;-37
2022/05/01 00:28:42;;;;;;;10.07;5.47;;;;;;;;;;5052828;28;20024;-37
2022/05/01 00:31:08;;;;;;;9.40;5.90;;;;;;;;;;5052771;28;20039;-36
2022/05/01 00:36:28;;;;;;;7.38;5.60;;;;;;;;;;5052173;28;20044;-37
2022/05/01 00:38:55;;;;;;;10.15;5.97;;;;;;;;;;5051838;28;20493;-37
2022/05/01 00:41:21;;;;;;;6.88;5.50;;;;;;;;;;5052594;28;20100;-37
2022/05/01 00:44:08;;;;;;;7.15;4.95;;;;;;;;;;5052537;28;20122;-37
2022/05/01 00:46:38;;;;;;;7.47;5.15;;;;;;;;;;5052461;28;20025;-37
2022/05/01 00:51:28;;;;;;;5.93;4.70;;;;;;;;;;5070714;28;20449;-35
2022/05/01 00:53:56;;;;;;;7.57;5.20;;;;;;;;;;5070728;28;20033;-38
2022/05/01 00:56:24;;;;;;;8.52;5.40;;;;;;;;;;5070661;28;20108;-37
2022/05/01 00:58:51;;;;;;;8.77;5.60;;;;;;;;;;5070475;28;20027;-38
2022/05/01 01:01:18;;;;;;;7.20;5.13;;;;;;;;;;5069031;28;20036;-37
2022/05/01 01:03:44;;;;;;;7.45;5.13;;;;;;;;;;5070463;28;20025;-35
2022/05/01 01:06:11;;;;;;;6.95;4.70;;;;;;;;;;5070697;28;20104;-38
2022/05/01 01:08:37;;;;;;;5.78;4.97;;;;;;;;;;5070377;28;20023;-38
2022/05/01 01:11:03;;;;;;;7.32;5.40;;;;;;;;;;5070630;28;20086;-37
2022/05/01 01:13:30;;;;;;;9.10;5.97;;;;;;;;;;5070283;28;20025;-38
2022/05/01 01:15:59;;;;;;;11.38;7.03;;;;;;;;;;5070301;28;20035;-38
2022/05/01 01:18:26;;;;;;;17.15;9.80;;;;;;;;;;5069696;28;20019;-36
2022/05/01 01:20:53;;;;;;;18.35;10.93;;;;;;;;;;5070050;28;20488;-34
2022/05/01 01:23:19;;;;;;;10.68;6.47;;;;;;;;;;5070161;28;20099;-35
2022/05/01 01:25:47;;;;;;;10.25;6.18;;;;;;;;;;5070160;28;20067;-35
2022/05/01 01:28:16;;;;;;;9.02;5.90;;;;;;;;;;5070076;28;20488;-37
2022/05/01 01:33:30;;;;;;;8.20;5.72;;;;;;;;;;5070233;28;20491;-39
2022/05/01 01:35:59;;;;;;;9.07;5.75;;;;;;;;;;5069759;28;20039;-39
2022/05/01 01:38:25;;;;;;;7.85;5.13;;;;;;;;;;5069557;28;20017;-37
2022/05/01 01:40:55;;;;;;;9.20;5.20;;;;;;;;;;5069428;28;20439;-38
2022/05/01 01:43:26;;;;;;;6.82;5.97;;;;;;;;;;5069940;28;20060;-38
2022/05/01 01:45:52;;;;;;;7.28;5.68;;;;;;;;;;5069638;28;20048;-38
2022/05/01 01:48:19;;;;;;;7.50;5.28;;;;;;;;;;5069433;28;20036;-37
2022/05/01 01:50:57;;;;;;;7.70;5.32;;;;;;;;;;5069355;28;20060;-37
2022/05/01 01:53:23;;;;;;;6.75;5.15;;;;;;;;;;5069541;28;20047;-38
2022/05/01 01:55:49;;;;;;;6.53;5.57;;;;;;;;;;5069204;28;20021;-38
2022/05/01 01:58:15;;;;;;;9.25;6.57;;;;;;;;;;5069343;28;20021;-37
2022/05/01 02:00:41;;;;;;;7.50;5.43;;;;;;;;;;5067867;28;20051;-37
2022/05/01 02:03:07;;;;;;;7.97;5.55;;;;;;;;;;5055894;28;20082;-38
2022/05/01 02:05:34;;;;;;;10.40;5.80;;;;;;;;;;5055970;28;20384;-37
2022/05/01 02:08:01;;;;;;;8.93;6.00;;;;;;;;;;5055955;28;20029;-37
2022/05/01 02:10:27;;;;;;;8.32;5.30;;;;;;;;;;5055917;28;20041;-38
2022/05/01 02:12:54;;;;;;;7.18;5.18;;;;;;;;;;5056104;28;20021;-40
2022/05/01 02:15:20;;;;;;;8.02;5.78;;;;;;;;;;5055779;28;20025;-36
2022/05/01 02:17:48;;;;;;;7.18;5.97;;;;;;;;;;5055952;28;20017;-37
2022/05/01 02:20:14;;;;;;;7.88;6.07;;;;;;;;;;5055554;28;20033;-39
2022/05/01 02:22:41;;;;;;;9.32;6.63;;;;;;;;;;5055766;28;20025;-37
2022/05/01 02:25:07;;;;;;;7.72;5.82;;;;;;;;;;5055735;28;20456;-37
2022/05/01 02:27:36;;;;;;;6.50;5.22;;;;;;;;;;5055666;28;20020;-37
2022/05/01 02:30:02;;;;;;;10.23;6.53;;;;;;;;;;5055697;28;20029;-37
2022/05/01 02:32:29;;;;;;;9.98;6.43;;;;;;;;;;5055814;28;20383;-38
2022/05/01 02:34:55;;;;;;;8.68;5.95;;;;;;;;;;5055405;28;20021;-37
2022/05/01 02:37:21;;;;;;;8.27;5.93;;;;;;;;;;5055005;28;20056;-40
2022/05/01 02:39:47;;;;;;;6.90;5.70;;;;;;;;;;5055367;28;20082;-36
2022/05/01 02:42:13;;;;;;;6.80;5.50;;;;;;;;;;5055536;28;20109;-37
2022/05/01 02:44:40;;;;;;;6.28;5.13;;;;;;;;;;5055444;28;20087;-38
2022/05/01 02:47:06;;;;;;;9.82;5.38;;;;;;;;;;5055577;28;20044;-38
2022/05/01 02:49:34;;;;;;;8.48;5.63;;;;;;;;;;5054968;28;20056;-36
2022/05/01 02:52:00;;;;;;;7.43;5.35;;;;;;;;;;5055359;28;20550;-37
2022/05/01 02:54:27;;;;;;;7.57;5.47;;;;;;;;;;5055272;28;20048;-40
2022/05/01 02:56:53;;;;;;;6.90;5.38;;;;;;;;;;5054686;28;20025;-40
2022/05/01 02:59:20;;;;;;;9.65;5.70;;;;;;;;;;5054890;28;20017;-39
2022/05/01 03:01:46;;;;;;;6.00;5.20;;;;;;;;;;5055004;28;20033;-37
2022/05/01 03:04:12;;;;;;;8.00;5.85;;;;;;;;;;5055133;28;20017;-39
2022/05/01 03:06:38;;;;;;;7.00;5.68;;;;;;;;;;5054965;28;20035;-39
2022/05/01 03:09:04;;;;;;;7.10;5.60;;;;;;;;;;5054837;28;20481;-37
2022/05/01 03:11:32;;;;;;;8.82;5.68;;;;;;;;;;5054704;28;20499;-36
2022/05/01 03:13:58;;;;;;;9.80;5.60;;;;;;;;;;5053793;28;20101;-37
2022/05/01 03:16:24;;;;;;;6.95;5.32;;;;;;;;;;5054688;28;20032;-38
2022/05/01 03:24:27;;;;;;;7.72;5.53;;;;;;;;;;5054488;28;20052;-37
2022/05/01 03:26:53;;;;;;;7.68;5.82;;;;;;;;;;5054644;28;20029;-40
2022/05/01 03:29:21;;;;;;;7.15;6.13;;;;;;;;;;5054501;28;20534;-38
2022/05/01 03:31:50;;;;;;;6.43;5.00;;;;;;;;;;5054549;28;20029;-38
2022/05/01 03:34:17;;;;;;;10.15;6.10;;;;;;;;;;5054549;28;20381;-38
2022/05/01 03:36:44;;;;;;;8.75;5.80;;;;;;;;;;5054289;28;20036;-37
2022/05/01 03:39:11;;;;;;;9.63;6.22;;;;;;;;;;5054007;28;20107;-39
2022/05/01 03:41:38;;;;;;;26.02;13.32;;;;;;;;;;5053367;28;21183;-35
2022/05/01 03:44:04;;;;;;;19.27;12.02;;;;;;;;;;5053710;28;20070;-36
2022/05/01 03:46:31;;;;;;;8.65;6.53;;;;;;;;;;5054364;28;20032;-35
2022/05/01 03:48:57;;;;;;;10.40;7.03;;;;;;;;;;5053886;28;20496;-36
2022/05/01 03:51:23;;;;;;;14.63;10.10;;;;;;;;;;5053820;28;20088;-37
2022/05/01 03:53:49;;;;;;;10.23;6.90;;;;;;;;;;5054000;28;20119;-36
2022/05/01 03:56:16;;;;;;;9.05;5.57;;;;;;;;;;5053560;28;20028;-36
2022/05/01 03:58:42;;;;;;;9.25;5.72;;;;;;;;;;5053796;28;20021;-38
2022/05/01 04:01:10;;;;;;;9.02;5.60;;;;;;;;;;5052512;28;20035;-36
2022/05/01 04:03:36;;;;;;;7.45;4.60;;;;;;;;;;5054082;28;20502;-38
2022/05/01 04:06:04;;;;;;;9.68;6.10;;;;;;;;;;5052782;28;20079;-36
2022/05/01 04:08:30;;;;;;;6.20;4.85;;;;;;;;;;5053778;28;20048;-36
2022/05/01 04:10:56;;;;;;;6.63;4.95;;;;;;;;;;5053565;28;20033;-37
2022/05/01 04:13:23;;;;;;;11.02;4.93;;;;;;;;;;5053374;28;20483;-37
2022/05/01 04:15:49;;;;;;;6.68;4.55;;;;;;;;;;5053705;28;20032;-36
2022/05/01 04:18:15;;;;;;;6.07;4.40;;;;;;;;;;5053380;28;20024;-37
2022/05/01 04:20:41;;;;;;;6.35;4.68;;;;;;;;;;5053463;28;20037;-37
2022/05/01 04:23:08;;;;;;;5.93;4.78;;;;;;;;;;5053780;28;20051;-39
2022/05/01 04:25:35;;;;;;;9.73;5.35;;;;;;;;;;5053284;28;20024;-36
2022/05/01 04:28:02;;;;;;;5.22;4.28;;;;;;;;;;5053466;28;20018;-37
2022/05/01 04:30:29;;;;;;;6.35;4.65;;;;;;;;;;5053432;28;20041;-38
2022/05/01 04:32:58;;;;;;;6.20;4.03;;;;;;;;;;5053556;28;20021;-37
2022/05/01 04:35:28;;;;;;;4.75;3.85;;;;;;;;;;5053406;28;20341;-37
2022/05/01 04:37:55;;;;;;;5.95;4.15;;;;;;;;;;5053818;28;20287;-40
2022/05/01 04:40:22;;;;;;;4.80;4.03;;;;;;;;;;5053136;28;20025;-40
2022/05/01 04:42:48;;;;;;;4.70;3.72;;;;;;;;;;5053476;28;20047;-37
2022/05/01 04:45:14;;;;;;;5.95;4.05;;;;;;;;;;5053174;28;20028;-38
2022/05/01 04:47:43;;;;;;;5.22;4.18;;;;;;;;;;5053235;28;20025;-37
2022/05/01 04:50:11;;;;;;;4.55;3.42;;;;;;;;;;5052915;28;20162;-39
2022/05/01 04:52:38;;;;;;;7.18;4.00;;;;;;;;;;5053421;28;20480;-38
2022/05/01 04:55:04;;;;;;;5.07;3.33;;;;;;;;;;5053094;28;20477;-38
2022/05/01 04:57:31;;;;;;;6.13;5.53;;;;;;;;;;5053275;28;20032;-39
2022/05/01 04:59:57;;;;;;;8.27;7.57;;;;;;;;;;5053167;28;20060;-37
2022/05/01 05:02:23;;;;;;;5.85;4.28;;;;;;;;;;5053201;28;20022;-39
2022/05/01 05:04:49;;;;;;;5.50;4.13;;;;;;;;;;5053242;28;20024;-40
2022/05/01 05:07:15;;;;;;;3.95;3.55;;;;;;;;;;5053077;28;20436;-38
2022/05/01 05:09:54;;;;;;;4.22;3.58;;;;;;;;;;5052945;28;20400;-38
2022/05/01 05:12:20;;;;;;;6.57;6.07;;;;;;;;;;5053277;28;20036;-37
2022/05/01 05:14:49;;;;;;;5.35;4.60;;;;;;;;;;5053156;28;20043;-40
2022/05/01 05:17:18;;;;;;;11.48;10.48;;;;;;;;;;5052581;28;20609;-38
2022/05/01 05:19:44;;;;;;;21.25;19.20;;;;;;;;;;5052924;28;20362;-38
2022/05/01 05:22:10;;;;;;;5.28;4.03;;;;;;;;;;5052920;28;20029;-39
2022/05/01 05:24:38;;;;;;;3.88;3.30;;;;;;;;;;5053202;28;20114;-38
2022/05/01 05:27:05;;;;;;;19.85;18.45;;;;;;;;;;5052898;28;20020;-38
2022/05/01 05:29:31;;;;;;;4.22;3.75;;;;;;;;;;5052814;28;20028;-38
2022/05/01 05:31:57;;;;;;;8.98;8.05;;;;;;;;;;5051457;28;20416;-40
2022/05/01 05:34:23;;;;;;;7.13;4.15;;;;;;;;;;5052946;28;20119;-38
2022/05/01 05:36:49;;;;;;;14.80;13.73;;;;;;;;;;5054082;28;20031;-38
2022/05/01 05:39:15;;;;;;;13.80;10.60;;;;;;;;;;5056665;28;20021;-37
2022/05/01 05:41:41;;;;;;;5.60;4.60;;;;;;;;;;5056699;28;20036;-40
2022/05/01 05:44:08;;;;;;;7.07;3.78;;;;;;;;;;5056417;28;20107;-40
2022/05/01 05:46:34;;;;;;;6.80;3.80;;;;;;;;;;5056246;28;20066;-38
2022/05/01 05:49:00;;;;;;;5.88;4.80;;;;;;;;;;5056051;28;20025;-37
2022/05/01 05:51:26;;;;;;;8.27;4.28;;;;;;;;;;5056463;28;20044;-39
2022/05/01 05:53:53;;;;;;;6.60;4.78;;;;;;;;;;5056244;28;20025;-38
2022/05/01 05:56:20;;;;;;;5.22;4.13;;;;;;;;;;5055966;28;20029;-38
2022/05/01 05:58:46;;;;;;;5.35;3.95;;;;;;;;;;5056252;28;20091;-38
2022/05/01 06:01:13;;;;;;;9.02;4.10;;;;;;;;;;5056102;28;20021;-38
2022/05/01 06:03:39;;;;;;;5.03;3.95;;;;;;;;;;5056043;28;20039;-39
2022/05/01 06:06:06;;;;;;;6.07;4.15;;;;;;;;;;5056043;28;20484;-38
2022/05/01 06:08:32;;;;;;;5.40;3.75;;;;;;;;;;5055697;28;20096;-39
2022/05/01 06:10:58;;;;;;;6.07;4.20;;;;;;;;;;5056012;28;20120;-39
2022/05/01 06:13:24;;;;;;;5.63;3.75;;;;;;;;;;5056102;28;20021;-39
2022/05/01 06:15:50;;;;;;;5.45;3.25;;;;;;;;;;5055876;28;20021;-39
2022/05/01 06:18:16;;;;;;;5.07;3.47;;;;;;;;;;5055430;28;20108;-39
2022/05/01 06:20:43;;;;;;;4.15;3.45;;;;;;;;;;5056054;28;20515;-41
2022/05/01 06:23:11;;;;;;;3.50;3.00;;;;;;;;;;5055662;28;20059;-38
2022/05/01 06:25:43;;;;;;;5.40;3.17;;;;;;;;;;5055790;28;20021;-39
2022/05/01 06:28:15;;;;;;;4.13;3.10;;;;;;;;;;5055561;28;20041;-39
2022/05/01 06:30:45;;;;;;;5.50;3.47;;;;;;;;;;5055634;28;20041;-38
2022/05/01 06:33:14;;;;;;;5.22;3.05;;;;;;;;;;5055600;28;20017;-37
2022/05/01 06:35:40;;;;;;;6.88;3.00;;;;;;;;;;5055430;28;20036;-38
2022/05/01 06:38:11;;;;;;;3.92;2.78;;;;;;;;;;5055536;28;20037;-39
2022/05/01 06:40:42;;;;;;;4.07;3.30;;;;;;;;;;5055225;28;20500;-38
2022/05/01 06:43:08;;;;;;;5.32;2.72;;;;;;;;;;5055575;28;20504;-41
2022/05/01 06:45:34;;;;;;;4.25;3.15;;;;;;;;;;5055577;28;20074;-41
2022/05/01 06:48:03;;;;;;;5.78;3.03;;;;;;;;;;5054459;28;20028;-41
2022/05/01 06:50:30;;;;;;;6.78;3.00;;;;;;;;;;5054815;28;20585;-42
2022/05/01 06:52:58;;;;;;;4.60;2.75;;;;;;;;;;5055122;28;20017;-41
2022/05/01 06:55:34;;;;;;;3.13;2.80;;;;;;;;;;5055201;28;20150;-39
2022/05/01 06:58:02;;;;;;;5.40;2.75;;;;;;;;;;5055377;28;20021;-38
2022/05/01 07:00:29;;;;;;;3.67;2.47;;;;;;;;;;5054802;28;20024;-39
2022/05/01 07:02:55;;;;;;;3.20;2.65;;;;;;;;;;5055075;28;20112;-39
2022/05/01 07:05:21;;;;;;;4.78;2.85;;;;;;;;;;5054840;28;20469;-39
2022/05/01 07:07:50;;;;;;;4.85;2.75;;;;;;;;;;5054817;28;20025;-38
2022/05/01 07:10:16;;;;;;;7.82;2.63;;;;;;;;;;5054825;28;20028;-39
2022/05/01 07:12:42;;;;;;;5.07;3.28;;;;;;;;;;5054627;28;20116;-37
2022/05/01 07:15:08;;;;;;;5.28;3.03;;;;;;;;;;5054799;28;20021;-38
2022/05/01 07:17:34;;;;;;;6.75;3.53;;;;;;;;;;5054281;28;20036;-38
2022/05/01 07:20:05;;;;;;;4.18;2.67;;;;;;;;;;5054477;28;20091;-39
2022/05/01 07:22:31;;;;;;;4.10;3.30;;;;;;;;;;5054789;28;20047;-39
2022/05/01 07:24:57;;;;;;;4.85;3.33;;;;;;;;;;5054336;28;20112;-38
2022/05/01 07:27:24;;;;;;;6.70;3.67;;;;;;;;;;5054263;28;20067;-38
2022/05/01 07:29:50;;;;;;;8.50;3.42;;;;;;;;;;5054292;28;20507;-39
2022/05/01 07:32:16;;;;;;;3.53;3.00;;;;;;;;;;5054416;28;20033;-38
2022/05/01 07:34:42;;;;;;;3.80;2.58;;;;;;;;;;5053230;28;20033;-38
2022/05/01 07:37:08;;;;;;;3.35;2.50;;;;;;;;;;5054250;28;20032;-39
2022/05/01 07:39:34;;;;;;;5.57;2.85;;;;;;;;;;5054152;28;20109;-39
2022/05/01 07:42:00;;;;;;;5.15;2.42;;;;;;;;;;5054153;28;20021;-36
2022/05/01 07:44:29;;;;;;;4.05;2.58;;;;;;;;;;5054240;28;20032;-39
2022/05/01 07:46:58;;;;;;;6.45;2.22;;;;;;;;;;5053896;28;20017;-40
2022/05/01 07:49:25;;;;;;;3.35;2.33;;;;;;;;;;5053656;28;20135;-37
2022/05/01 07:51:51;;;;;;;5.75;2.13;;;;;;;;;;5054234;28;20033;-40
2022/05/01 07:54:17;;;;;;;2.65;2.28;;;;;;;;;;5054028;28;20041;-39
2022/05/01 07:56:44;;;;;;;4.70;1.90;;;;;;;;;;5053998;28;20388;-41
2022/05/01 07:59:11;;;;;;;5.35;1.80;;;;;;;;;;5053513;28;20021;-40
2022/05/01 08:01:38;;;;;;;1.77;1.50;;;;;;;;;;5053699;28;20498;-38
2022/05/01 08:06:49;;;;;;;5.63;2.30;;;;;;;;;;5054190;28;20036;-39
2022/05/01 08:09:15;;;;;;;2.78;1.67;;;;;;;;;;5053740;28;20063;-39
2022/05/01 08:11:42;;;;;;;3.30;1.88;;;;;;;;;;5053514;28;20044;-39
2022/05/01 08:14:12;;;;;;;3.53;1.90;;;;;;;;;;5053767;28;20032;-37
2022/05/01 08:16:39;;;;;;;5.20;1.65;;;;;;;;;;5053298;28;20028;-38
2022/05/01 08:21:50;;;;;;;6.30;1.77;;;;;;;;;;5053929;28;20080;-38
2022/05/01 08:24:16;;;;;;;4.80;2.63;;;;;;;;;;5053748;28;20029;-38
2022/05/01 08:26:47;;;;;;;4.40;1.60;;;;;;;;;;5053462;28;20108;-38
2022/05/01 08:29:15;;;;;;;3.22;2.30;;;;;;;;;;5053501;28;20033;-39
2022/05/01 08:31:42;;;;;;;7.00;1.92;;;;;;;;;;5053549;28;20086;-38
2022/05/01 08:34:09;;;;;;;5.38;1.75;;;;;;;;;;5053670;28;20031;-40
2022/05/01 08:36:38;;;;;;;2.25;2.05;;;;;;;;;;5053844;28;20021;-39
2022/05/01 08:39:04;;;;;;;4.95;1.60;;;;;;;;;;5052875;28;20021;-39
2022/05/01 08:41:31;;;;;;;6.97;1.85;;;;;;;;;;5053111;28;20033;-40
2022/05/01 08:43:58;;;;;;;4.75;1.60;;;;;;;;;;5053349;28;20100;-39
2022/05/01 08:46:27;;;;;;;2.92;1.55;;;;;;;;;;5051836;28;20033;-37
2022/05/01 08:49:01;;;;;;;4.68;1.67;;;;;;;;;;5053539;28;20368;-39
2022/05/01 08:51:31;;;;;;;2.90;1.50;;;;;;;;;;5053236;28;20048;-40
2022/05/01 08:54:00;;;;;;;3.33;1.75;;;;;;;;;;5053233;28;20113;-39
2022/05/01 08:56:26;;;;;;;6.43;1.60;;;;;;;;;;5053188;28;20017;-38
2022/05/01 08:58:53;;;;;;;6.13;1.70;;;;;;;;;;5053167;28;20105;-39
2022/05/01 09:01:20;;;;;;;3.42;1.23;;;;;;;;;;5053145;28;20032;-40
2022/05/01 09:03:46;;;;;;;3.65;1.40;;;;;;;;;;5053346;28;20023;-39
2022/05/01 09:06:13;;;;;;;3.75;1.30;;;;;;;;;;5053452;28;20057;-38
2022/05/01 09:08:46;;;;;;;3.67;1.60;;;;;;;;;;5052013;28;20057;-38
2022/05/01 09:13:59;;;;;;;2.28;1.30;;;;;;;;;;5057589;28;20541;-38
2022/05/01 09:16:25;;;;;;;4.18;2.65;;;;;;;;;;5056999;28;20033;-39
2022/05/01 09:18:56;;;;;;;3.33;1.70;;;;;;;;;;5056974;28;20479;-38
2022/05/01 09:21:27;;;;;;;7.65;1.85;;;;;;;;;;5056497;28;20516;-38
2022/05/01 09:23:53;;;;;;;3.85;1.60;;;;;;;;;;5056858;28;20021;-38
2022/05/01 09:26:19;;;;;;;5.03;1.92;;;;;;;;;;5057075;28;20473;-38
2022/05/01 09:28:51;;;;;;;5.07;1.83;;;;;;;;;;5056818;28;20029;-38
2022/05/01 09:31:35;;;;;;;2.45;1.88;;;;;;;;;;5056881;28;20047;-38
2022/05/01 09:34:17;;;;;;;4.53;3.45;;;;;;;;;;5056920;28;20480;-39
2022/05/01 09:36:44;;;;;;;6.22;2.03;;;;;;;;;;5057013;28;20036;-39
2022/05/01 09:39:10;;;;;;;4.10;2.83;;;;;;;;;;5054215;28;20018;-38
2022/05/01 09:41:42;;;;;;;4.47;2.58;;;;;;;;;;5054878;28;20017;-40
2022/05/01 09:44:07;;;;;;;;;;;;;;;;;;5056903;28;20428;-37
2022/05/01 09:46:34;;;;;;;2.88;1.80;;;;;;;;;;5055564;28;19905;-41
2022/05/01 09:49:00;;;;;;;2.28;1.90;;;;;;;;;;5055421;28;20063;-38
2022/05/01 09:51:30;;;;;;;4.22;2.03;;;;;;;;;;5056426;28;20550;-39
2022/05/01 09:53:56;;;;;;;5.70;1.60;;;;;;;;;;5056423;28;20060;-38
2022/05/01 09:56:22;;;;;;;3.40;2.40;;;;;;;;;;5056264;28;20033;-39
2022/05/01 09:59:04;;;;;;;8.25;4.47;;;;;;;;;;5056268;28;20017;-38
2022/05/01 10:01:30;;;;;;;12.15;6.93;;;;;;;;;;5056109;28;20029;-38
2022/05/01 10:03:59;;;;;;;8.43;4.75;;;;;;;;;;5056425;28;20379;-39
2022/05/01 10:06:28;;;;;;;6.00;3.33;;;;;;;;;;5056161;28;20035;-39
2022/05/01 10:08:54;;;;;;;4.50;2.78;;;;;;;;;;5056244;28;20026;-39
2022/05/01 10:11:23;;;;;;;5.78;3.28;;;;;;;;;;5056024;28;20480;-40
2022/05/01 10:13:50;;;;;;;5.30;3.20;;;;;;;;;;5056297;28;20391;-39
2022/05/01 10:16:18;;;;;;;12.98;5.78;;;;;;;;;;5056236;28;20107;-38
2022/05/01 10:18:46;;;;;;;6.90;4.07;;;;;;;;;;5054338;28;20079;-38
2022/05/01 10:21:12;;;;;;;9.27;5.07;;;;;;;;;;5055757;28;20032;-38
2022/05/01 10:23:40;;;;;;;6.00;2.40;;;;;;;;;;5055378;28;20017;-37
2022/05/01 10:26:27;;;;;;;5.28;2.97;;;;;;;;;;5055739;28;20052;-38
2022/05/01 10:28:56;;;;;;;5.57;3.15;;;;;;;;;;5055539;28;20024;-38
2022/05/01 10:34:46;;;;;;;4.82;2.95;;;;;;;;;;5033974;28;20029;-37
2022/05/01 10:37:31;;;;;;;6.15;2.90;;;;;;;;;;4955402;29;20541;-40
2022/05/01 10:39:58;;;;;;;10.07;3.58;;;;;;;;;;4954825;28;20039;-41
2022/05/01 10:42:33;;;;;;;7.82;3.13;;;;;;;;;;4955262;29;20051;-38
2022/05/01 10:45:00;;;;;;;4.32;2.65;;;;;;;;;;4955292;29;20034;-38
2022/05/01 10:47:36;;;;;;;5.30;2.55;;;;;;;;;;4939396;29;20027;-38
2022/05/01 10:50:11;;;;;;;8.00;2.45;;;;;;;;;;4938861;29;20051;-38
2022/05/01 10:53:04;;;;;;;3.08;2.30;;;;;;;;;;4955138;29;20167;-38
2022/05/01 10:55:48;;;;;;;7.45;2.90;;;;;;;;;;4955109;29;20558;-41
2022/05/01 10:58:25;;;;;;;3.92;2.38;;;;;;;;;;4954885;29;20462;-40
2022/05/01 11:00:51;;;;;;;7.75;2.83;;;;;;;;;;4954966;29;20036;-38
2022/05/01 11:03:27;;;;;;;4.75;3.35;;;;;;;;;;4955136;29;20024;-38
2022/05/01 11:05:56;;;;;;;5.45;3.45;;;;;;;;;;4955017;29;20119;-38
2022/05/01 11:08:28;;;;;;;6.22;3.63;;;;;;;;;;4955011;29;20123;-41
2022/05/01 11:10:56;;;;;;;3.88;2.45;;;;;;;;;;4985847;28;20037;-38
2022/05/01 11:13:25;;;;;;;6.22;3.35;;;;;;;;;;5055109;28;20488;-39
2022/05/01 11:15:52;;;;;;;3.97;2.45;;;;;;;;;;5054958;28;20027;-38
2022/05/01 11:18:27;;;;;;;9.95;3.25;;;;;;;;;;5054571;28;20079;-39
2022/05/01 11:20:53;;;;;;;6.50;3.95;;;;;;;;;;5054589;28;20025;-39
2022/05/01 11:23:26;;;;;;;11.70;5.30;;;;;;;;;;5054919;28;20029;-38
2022/05/01 11:26:04;;;;;;;4.97;2.88;;;;;;;;;;5054454;28;20079;-39
2022/05/01 11:28:50;;;;;;;8.52;4.68;;;;;;;;;;5054619;28;20056;-42
2022/05/01 11:31:45;;;;;;;5.70;3.05;;;;;;;;;;5054591;28;20090;-38
2022/05/01 11:34:19;;;;;;;5.90;2.60;;;;;;;;;;5011827;28;20061;-38
2022/05/01 11:37:01;;;;;;;4.82;2.83;;;;;;;;;;5012732;28;20069;-39
2022/05/01 11:39:45;;;;;;;6.50;3.10;;;;;;;;;;5012526;28;20529;-37
2022/05/01 11:42:29;;;;;;;4.72;2.88;;;;;;;;;;5012288;28;20026;-37
2022/05/01 11:44:58;;;;;;;8.63;3.47;;;;;;;;;;5012592;28;20172;-39
2022/05/01 11:47:25;;;;;;;5.22;2.72;;;;;;;;;;5012383;28;20109;-38
2022/05/01 11:49:52;;;;;;;7.65;2.83;;;;;;;;;;5012537;28;20066;-40
2022/05/01 11:52:22;;;;;;;4.93;3.03;;;;;;;;;;5012590;28;20064;-38
2022/05/01 11:54:52;;;;;;;15.70;5.25;;;;;;;;;;5012059;28;20029;-39
2022/05/01 12:02:58;;;;;;;13.45;5.78;;;;;;;;;;5012574;28;20068;-41
2022/05/01 12:05:25;;;;;;;7.18;4.15;;;;;;;;;;5012092;28;20029;-40
2022/05/01 12:07:59;;;;;;;8.98;5.25;;;;;;;;;;5012083;28;20033;-40
2022/05/01 12:10:28;;;;;;;6.60;3.83;;;;;;;;;;5028153;28;20518;-42
2022/05/01 12:12:54;;;;;;;5.15;3.67;;;;;;;;;;5053458;28;20094;-39
2022/05/01 12:15:20;;;;;;;6.22;3.35;;;;;;;;;;5053671;28;20021;-39
2022/05/01 12:17:47;;;;;;;9.25;5.10;;;;;;;;;;5053486;28;20028;-39
2022/05/01 12:20:13;;;;;;;7.63;3.65;;;;;;;;;;5053472;28;20027;-40
2022/05/01 12:22:40;;;;;;;7.35;2.80;;;;;;;;;;5053701;28;20053;-38
2022/05/01 12:25:07;;;;;;;8.32;3.63;;;;;;;;;;5053899;28;20472;-38
2022/05/01 12:27:34;;;;;;;7.85;4.50;;;;;;;;;;5053488;28;20543;-39
2022/05/01 12:30:06;;;;;;;5.47;3.20;;;;;;;;;;5053233;28;20024;-39
2022/05/01 12:32:32;;;;;;;11.43;5.05;;;;;;;;;;5053303;28;20551;-39
2022/05/01 12:35:03;;;;;;;4.97;3.00;;;;;;;;;;5053302;28;20028;-38
2022/05/01 12:37:34;;;;;;;6.05;3.40;;;;;;;;;;5053470;28;20052;-37
2022/05/01 12:40:04;;;;;;;13.35;3.35;;;;;;;;;;5053235;28;20025;-38
2022/05/01 12:45:20;;;;;;;4.18;1.83;;;;;;;;;;5053102;28;20039;-38
2022/05/01 12:47:47;;;;;;;8.60;2.00;;;;;;;;;;5053009;28;20013;-38
2022/05/01 12:50:20;;;;;;;3.42;1.95;;;;;;;;;;5052819;28;20053;-38
2022/05/01 12:52:51;;;;;;;3.97;2.10;;;;;;;;;;5053287;28;20029;-38
2022/05/01 12:55:19;;;;;;;5.93;2.50;;;;;;;;;;5051819;28;20146;-37
2022/05/01 12:57:51;;;;;;;6.38;1.83;;;;;;;;;;5053133;28;20100;-38
2022/05/01 13:00:36;;;;;;;3.42;2.35;;;;;;;;;;5052878;28;20112;-39
2022/05/01 13:03:36;;;;;;;4.72;2.38;;;;;;;;;;5053115;28;20364;-39
2022/05/01 13:06:09;;;;;;;5.93;2.67;;;;;;;;;;5044691;28;20037;-39
2022/05/01 13:08:58;;;;;;;7.50;3.75;;;;;;;;;;5053051;28;20021;-39
2022/05/01 13:11:25;;;;;;;3.08;2.00;;;;;;;;;;5046219;28;20041;-40
2022/05/01 13:14:02;;;;;;;8.40;2.28;;;;;;;;;;5052485;28;20029;-41
2022/05/01 13:16:31;;;;;;;3.28;1.70;;;;;;;;;;5052971;28;20499;-40
2022/05/01 13:19:26;;;;;;;5.88;3.00;;;;;;;;;;5052502;28;20031;-40
2022/05/01 13:21:53;;;;;;;5.30;2.47;;;;;;;;;;5011072;28;20062;-42
2022/05/01 13:24:19;;;;;;;6.95;2.15;;;;;;;;;;5011346;28;20022;-40
2022/05/01 13:26:45;;;;;;;9.75;2.58;;;;;;;;;;5011017;28;20084;-39
2022/05/01 13:29:12;;;;;;;5.97;3.65;;;;;;;;;;5011163;28;20109;-41
2022/05/01 13:31:40;;;;;;;7.63;4.13;;;;;;;;;;5010880;28;20049;-41
2022/05/01 13:34:07;;;;;;;7.00;2.88;;;;;;;;;;5011038;28;20630;-41
2022/05/01 13:36:33;;;;;;;10.77;2.17;;;;;;;;;;5011094;28;20497;-41
2022/05/01 13:39:00;;;;;;;4.85;2.67;;;;;;;;;;5010868;28;20120;-41
2022/05/01 13:46:58;;;;;;;5.47;3.13;;;;;;;;;;5010977;28;20040;-41
2022/05/01 13:49:25;;;;;;;5.10;1.42;;;;;;;;;;5010589;28;20165;-40
2022/05/01 13:51:51;;;;;;;7.93;3.28;;;;;;;;;;5010652;28;20545;-39
2022/05/01 13:54:18;;;;;;;5.80;2.15;;;;;;;;;;5011002;28;20029;-41
2022/05/01 13:56:46;;;;;;;6.85;3.50;;;;;;;;;;5010764;28;20026;-42
2022/05/01 13:59:14;;;;;;;3.63;1.30;;;;;;;;;;5051366;28;20033;-41
2022/05/01 14:01:40;;;;;;;3.55;1.98;;;;;;;;;;5055855;28;20397;-38
2022/05/01 14:04:07;;;;;;;5.20;2.30;;;;;;;;;;5055958;28;20025;-38
2022/05/01 14:06:35;;;;;;;2.65;1.40;;;;;;;;;;5056091;28;20397;-38
2022/05/01 14:09:01;;;;;;;4.78;2.15;;;;;;;;;;5055955;28;20028;-38
2022/05/01 14:11:28;;;;;;;2.10;1.77;;;;;;;;;;5055797;28;20033;-41
2022/05/01 14:13:54;;;;;;;4.72;2.17;;;;;;;;;;5055807;28;20036;-39
2022/05/01 14:16:23;;;;;;;4.95;1.92;;;;;;;;;;5056005;28;20079;-41
2022/05/01 14:18:50;;;;;;;4.78;1.42;;;;;;;;;;5055597;28;20461;-38
2022/05/01 14:21:21;;;;;;;1.42;0.98;;;;;;;;;;5055738;28;20104;-39
2022/05/01 14:23:48;;;;;;;2.60;1.45;;;;;;;;;;5054707;28;20041;-39
2022/05/01 14:26:15;;;;;;;3.85;1.10;;;;;;;;;;5055899;28;20362;-39
2022/05/01 14:28:44;;;;;;;2.67;1.60;;;;;;;;;;5055139;28;20055;-38
2022/05/01 14:31:13;;;;;;;5.90;2.10;;;;;;;;;;5055675;28;20112;-39
2022/05/01 14:33:44;;;;;;;4.00;1.30;;;;;;;;;;5055700;28;20029;-39
2022/05/01 14:36:13;;;;;;;1.88;1.08;;;;;;;;;;5055716;28;20138;-41
2022/05/01 14:38:48;;;;;;;1.98;1.30;;;;;;;;;;5055087;28;20583;-40
2022/05/01 14:41:16;;;;;;;2.78;0.90;;;;;;;;;;5055342;28;20063;-43
2022/05/01 14:43:44;;;;;;;1.55;0.85;;;;;;;;;;5055315;28;20071;-40
2022/05/01 14:46:11;;;;;;;1.30;1.02;;;;;;;;;;5055218;28;20060;-42
2022/05/01 14:48:49;;;;;;;3.25;1.17;;;;;;;;;;5055145;28;20074;-38
2022/05/01 14:51:15;;;;;;;1.42;1.17;;;;;;;;;;5055013;28;20661;-42
2022/05/01 14:53:41;;;;;;;1.90;0.88;;;;;;;;;;5054035;28;20108;-42
2022/05/01 14:56:07;;;;;;;10.48;2.40;;;;;;;;;;5055556;28;20025;-42
2022/05/01 15:06:57;;;;;;;1.83;1.45;;;;;;;;;;5055598;28;20484;-39
2022/05/01 15:09:23;;;;;;;1.33;0.98;;;;;;;;;;5054953;28;20099;-39
2022/05/01 15:11:52;;;;;;;3.05;1.55;;;;;;;;;;5054889;28;20479;-39
2022/05/01 15:14:18;;;;;;;3.17;1.48;;;;;;;;;;5055198;28;20051;-39
2022/05/01 15:16:52;;;;;;;2.42;1.55;;;;;;;;;;5054897;28;20025;-41
2022/05/01 15:19:19;;;;;;;4.03;1.33;;;;;;;;;;5054591;28;20021;-41
2022/05/01 15:24:33;;;;;;;3.42;1.33;;;;;;;;;;5055192;28;20033;-42
2022/05/01 15:27:02;;;;;;;3.35;1.60;;;;;;;;;;5054595;28;20104;-39
2022/05/01 15:29:48;;;;;;;5.38;2.22;;;;;;;;;;5053703;28;20480;-42
2022/05/01 15:32:21;;;;;;;3.33;1.10;;;;;;;;;;5054408;28;20050;-39
2022/05/01 15:34:48;;;;;;;3.97;2.22;;;;;;;;;;5054710;28;20480;-39
2022/05/01 15:37:15;;;;;;;3.92;1.38;;;;;;;;;;5054700;28;20037;-38
2022/05/01 15:39:43;;;;;;;2.65;1.33;;;;;;;;;;5054425;28;20099;-39